Time;durP1;ratioP1;P1;durP2;ratioP2;P2;SDS_P1;SDS_P2;PMS_P1;PMS_P2;Temp;Humidity;BMP_temperature;BMP_pressure;BME280_temperature;BME280_humidity;BME280_pressure;Samples;Min_cycle;Max_cycle;Signal;HPM_P1;HPM_P2
2022/10/31 06:46:50;;;;;;;10.93;3.50;;;12.80;99.90;;;;;;5228880;23;20064;-84
2022/10/31 06:49:17;;;;;;;12.82;6.05;;;12.80;99.90;;;;;;4920771;29;20440;-85
2022/10/31 06:51:47;;;;;;;12.18;3.75;;;12.80;99.90;;;;;;4921561;29;20501;-85
2022/10/31 06:54:14;;;;;;;9.07;4.25;;;12.90;99.90;;;;;;4924499;29;20369;-84
2022/10/31 06:56:41;;;;;;;9.25;4.38;;;12.80;99.90;;;;;;4930540;29;20052;-84
2022/10/31 06:59:13;;;;;;;10.10;4.00;;;12.90;99.90;;;;;;4934147;29;20504;-83
2022/10/31 07:01:42;;;;;;;12.98;5.40;;;12.90;99.90;;;;;;4930217;29;20071;-84
2022/10/31 07:04:12;;;;;;;8.27;4.13;;;12.90;99.90;;;;;;4942469;29;20150;-84
2022/10/31 07:06:50;;;;;;;10.05;4.80;;;13.00;99.90;;;;;;4940886;29;20072;-84
2022/10/31 07:09:17;;;;;;;11.63;4.40;;;13.00;99.90;;;;;;4927995;29;20100;-84
2022/10/31 07:11:46;;;;;;;6.97;3.95;;;13.00;99.90;;;;;;4925302;29;20505;-84
2022/10/31 07:14:17;;;;;;;10.85;5.50;;;13.10;99.90;;;;;;4930653;29;20457;-84
2022/10/31 07:16:47;;;;;;;11.07;7.53;;;13.10;99.90;;;;;;4935057;29;20062;-85
2022/10/31 07:19:14;;;;;;;11.63;7.15;;;13.10;99.90;;;;;;4926626;29;20048;-84
2022/10/31 07:21:40;;;;;;;10.73;7.28;;;13.20;99.90;;;;;;4923654;29;20048;-85
2022/10/31 07:24:07;;;;;;;13.77;7.90;;;13.20;99.90;;;;;;4920005;29;20062;-85
2022/10/31 07:26:34;;;;;;;12.63;7.63;;;13.20;99.90;;;;;;4924227;29;20076;-86
2022/10/31 07:29:01;;;;;;;11.00;7.90;;;13.20;99.90;;;;;;4928463;29;20456;-85
2022/10/31 07:31:28;;;;;;;9.27;5.85;;;13.30;99.90;;;;;;4915242;29;20130;-85
2022/10/31 07:33:55;;;;;;;12.45;6.63;;;13.40;99.90;;;;;;4922485;29;20119;-83
2022/10/31 07:36:21;;;;;;;13.80;6.10;;;13.50;99.90;;;;;;4934881;29;20112;-86
2022/10/31 07:38:49;;;;;;;12.85;5.38;;;13.50;99.90;;;;;;4949370;29;20048;-86
2022/10/31 07:41:16;;;;;;;12.90;6.43;;;13.40;99.90;;;;;;4947291;29;20099;-87
2022/10/31 07:43:43;;;;;;;10.35;4.97;;;13.50;99.90;;;;;;4942425;29;20036;-84
2022/10/31 07:46:11;;;;;;;7.85;5.13;;;13.50;99.90;;;;;;4928068;29;20048;-84
2022/10/31 07:48:38;;;;;;;14.52;4.90;;;13.60;99.90;;;;;;4923284;29;20139;-84
2022/10/31 07:51:06;;;;;;;11.52;5.22;;;13.70;99.90;;;;;;4921079;29;20743;-83
2022/10/31 07:53:33;;;;;;;19.42;5.40;;;13.70;99.90;;;;;;4930697;29;20051;-83
2022/10/31 07:56:00;;;;;;;13.52;4.90;;;13.80;99.90;;;;;;4929346;29;20127;-82
2022/10/31 07:58:27;;;;;;;12.50;4.68;;;13.90;99.90;;;;;;4929761;29;20453;-82
2022/10/31 08:00:53;;;;;;;18.23;5.00;;;13.90;99.90;;;;;;4922687;29;20066;-83
2022/10/31 08:03:20;;;;;;;11.02;4.22;;;14.00;99.90;;;;;;4920193;29;20049;-85
2022/10/31 08:05:47;;;;;;;14.40;4.70;;;14.00;99.90;;;;;;4921508;29;20105;-84
2022/10/31 08:08:15;;;;;;;15.95;4.55;;;14.10;99.90;;;;;;4923778;29;20044;-83
2022/10/31 08:10:42;;;;;;;12.50;5.13;;;14.20;99.90;;;;;;4925992;29;20050;-84
2022/10/31 08:13:13;;;;;;;9.88;5.00;;;14.20;99.90;;;;;;4913984;29;20067;-84
2022/10/31 08:15:41;;;;;;;9.35;4.95;;;14.30;99.90;;;;;;4913533;29;20452;-83
2022/10/31 08:18:14;;;;;;;15.10;5.90;;;14.30;99.90;;;;;;4917135;29;20051;-84
2022/10/31 08:20:42;;;;;;;7.78;4.22;;;14.40;99.90;;;;;;4922907;29;20504;-84
2022/10/31 08:23:11;;;;;;;11.48;5.05;;;14.40;99.90;;;;;;4923957;29;20075;-84
2022/10/31 08:25:38;;;;;;;14.85;6.15;;;14.50;99.90;;;;;;4920262;29;20108;-83
2022/10/31 08:28:06;;;;;;;11.68;4.97;;;14.60;99.90;;;;;;4922733;29;20040;-84
2022/10/31 08:30:35;;;;;;;11.00;4.70;;;14.50;99.90;;;;;;4929194;29;20139;-84
2022/10/31 08:33:14;;;;;;;11.67;5.13;;;14.60;99.90;;;;;;4930001;29;20108;-84
2022/10/31 08:35:41;;;;;;;8.60;5.10;;;14.70;99.90;;;;;;4920255;29;20052;-84
2022/10/31 08:38:11;;;;;;;11.77;6.13;;;14.80;99.90;;;;;;4930525;29;20135;-84
2022/10/31 08:40:38;;;;;;;9.68;5.30;;;14.80;99.90;;;;;;4934081;29;20515;-83
2022/10/31 08:43:16;;;;;;;12.35;5.28;;;14.80;99.90;;;;;;4927075;29;20061;-89
2022/10/31 08:45:44;;;;;;;11.93;5.93;;;14.90;99.90;;;;;;4922541;29;20568;-90
2022/10/31 08:48:14;;;;;;;13.10;5.07;;;15.00;99.90;;;;;;4921132;29;20048;-90
2022/10/31 08:50:41;;;;;;;10.27;6.03;;;15.00;99.90;;;;;;4920616;29;20073;-89
2022/10/31 08:53:11;;;;;;;18.42;6.20;;;15.00;99.90;;;;;;4917459;29;20143;-84
2022/10/31 08:55:39;;;;;;;13.57;5.97;;;15.00;99.90;;;;;;4923173;29;20074;-83
2022/10/31 08:58:09;;;;;;;15.25;6.00;;;15.10;99.90;;;;;;4919481;29;20082;-83
2022/10/31 09:00:36;;;;;;;12.40;5.60;;;15.10;99.90;;;;;;4915007;29;20050;-82
2022/10/31 09:03:05;;;;;;;17.00;5.28;;;15.20;99.90;;;;;;4926948;29;20043;-83
2022/10/31 09:05:33;;;;;;;10.45;5.22;;;15.30;99.90;;;;;;4919773;29;20051;-83
2022/10/31 09:08:02;;;;;;;13.07;4.85;;;15.30;99.90;;;;;;4923459;29;20048;-83
2022/10/31 09:10:30;;;;;;;13.02;5.35;;;15.40;99.90;;;;;;4918592;29;20351;-83
2022/10/31 09:12:58;;;;;;;13.13;4.82;;;15.50;99.90;;;;;;4927737;29;20418;-82
2022/10/31 09:15:27;;;;;;;9.85;4.63;;;15.50;99.90;;;;;;4918164;29;20048;-82
2022/10/31 09:17:54;;;;;;;8.05;4.60;;;15.50;99.90;;;;;;4915638;29;20048;-83
2022/10/31 09:20:22;;;;;;;7.75;4.28;;;15.60;99.90;;;;;;4918561;29;20060;-83
2022/10/31 09:22:56;;;;;;;11.95;4.82;;;15.70;99.90;;;;;;4927036;29;20059;-83
2022/10/31 09:25:23;;;;;;;11.23;6.97;;;15.70;99.90;;;;;;4910125;29;20044;-82
2022/10/31 09:27:49;;;;;;;11.88;6.57;;;15.80;99.90;;;;;;4920882;29;20052;-82
2022/10/31 09:30:16;;;;;;;12.00;5.68;;;15.80;99.90;;;;;;4917563;29;20048;-84
2022/10/31 09:32:43;;;;;;;12.95;6.47;;;15.80;99.90;;;;;;4923153;29;20361;-83
2022/10/31 09:35:09;;;;;;;14.20;5.88;;;15.90;99.90;;;;;;4923084;29;20046;-83
2022/10/31 09:37:41;;;;;;;13.23;6.35;;;15.90;99.90;;;;;;4929618;29;20062;-83
2022/10/31 09:40:08;;;;;;;19.27;6.65;;;15.90;99.90;;;;;;4927483;29;20139;-83
2022/10/31 09:42:47;;;;;;;15.77;6.40;;;16.00;99.90;;;;;;4922557;29;20056;-84
2022/10/31 09:45:23;;;;;;;16.75;6.70;;;16.00;99.90;;;;;;4937398;29;20078;-83
2022/10/31 09:48:20;;;;;;;13.70;6.72;;;16.10;99.90;;;;;;4927378;29;20047;-84
2022/10/31 09:50:52;;;;;;;12.57;6.85;;;16.10;99.90;;;;;;4923966;29;20045;-84
2022/10/31 09:53:47;;;;;;;17.75;7.55;;;16.10;99.90;;;;;;4920644;29;20063;-84
2022/10/31 09:56:19;;;;;;;13.65;6.85;;;16.20;99.90;;;;;;4933080;29;20512;-82
2022/10/31 09:58:49;;;;;;;15.00;6.72;;;16.30;99.90;;;;;;4929353;29;20053;-83
2022/10/31 10:01:45;;;;;;;12.50;7.72;;;16.30;99.90;;;;;;4933228;29;20110;-85
2022/10/31 10:04:40;;;;;;;17.08;6.35;;;16.40;99.90;;;;;;4931024;29;20055;-84
2022/10/31 10:07:49;;;;;;;14.57;7.25;;;16.40;99.90;;;;;;4941279;29;20055;-85
2022/10/31 10:10:44;;;;;;;13.50;6.55;;;16.40;99.90;;;;;;4914735;29;20497;-85
2022/10/31 10:13:39;;;;;;;26.15;6.82;;;16.50;99.90;;;;;;4924021;29;20048;-85
2022/10/31 10:16:33;;;;;;;17.25;6.97;;;16.50;99.90;;;;;;4939578;29;20111;-83
2022/10/31 10:19:59;;;;;;;13.63;5.65;;;16.50;99.90;;;;;;4926228;29;20048;-82
2022/10/31 10:22:59;;;;;;;13.55;7.10;;;16.50;99.90;;;;;;4877494;29;20042;-83
2022/10/31 10:25:49;;;;;;;17.50;6.85;;;16.50;99.90;;;;;;4919661;29;20363;-84
2022/10/31 10:28:25;;;;;;;23.77;6.95;;;16.50;99.90;;;;;;4940958;29;20056;-83
2022/10/31 10:31:03;;;;;;;12.27;6.85;;;16.50;99.90;;;;;;4931666;29;20051;-83
2022/10/31 10:34:02;;;;;;;12.40;7.35;;;16.50;99.90;;;;;;4938584;29;20126;-84
2022/10/31 10:36:34;;;;;;;11.90;6.35;;;16.50;99.90;;;;;;4932369;29;20070;-82
2022/10/31 10:39:05;;;;;;;11.93;6.22;;;16.40;99.90;;;;;;4931048;29;20526;-84
2022/10/31 10:41:33;;;;;;;10.30;6.15;;;16.60;99.90;;;;;;4927482;29;20055;-82
2022/10/31 10:44:01;;;;;;;11.52;5.75;;;16.50;99.90;;;;;;4925538;29;20064;-85
2022/10/31 10:49:35;;;;;;;17.50;6.63;;;16.70;99.90;;;;;;4928309;29;20551;-83
2022/10/31 10:52:08;;;;;;;11.55;6.03;;;16.70;99.90;;;;;;4916912;29;20048;-83
2022/10/31 10:55:11;;;;;;;13.93;5.65;;;16.80;99.90;;;;;;4919723;29;20048;-82
2022/10/31 10:58:08;;;;;;;14.15;5.70;;;16.90;99.90;;;;;;4913146;29;20080;-83
2022/10/31 11:00:39;;;;;;;17.75;7.13;;;17.00;99.90;;;;;;4924514;29;20052;-83
2022/10/31 11:03:07;;;;;;;14.80;7.13;;;17.00;99.90;;;;;;4925206;29;20058;-83
2022/10/31 11:05:49;;;;;;;14.65;5.90;;;17.00;99.90;;;;;;4924950;29;20079;-83
2022/10/31 11:08:27;;;;;;;12.30;4.95;;;17.10;99.90;;;;;;4919571;29;20463;-85
2022/10/31 11:11:10;;;;;;;12.25;4.60;;;17.20;99.90;;;;;;4930965;29;20052;-83
2022/10/31 11:18:12;;;;;;;;;;;;;;;;;;;;;
2022/10/31 11:44:26;;;;;;;12.40;4.50;;;17.70;99.90;;;;;;4814457;29;20034;-83
2022/10/31 11:46:58;;;;;;;9.77;4.53;;;17.70;99.90;;;;;;4841113;29;20072;-83
2022/10/31 11:49:39;;;;;;;12.00;4.82;;;17.60;99.90;;;;;;4898965;29;20040;-83
2022/10/31 11:52:15;;;;;;;10.75;4.35;;;17.60;99.90;;;;;;4918782;29;20422;-83
2022/10/31 11:55:23;;;;;;;14.25;5.80;;;17.50;99.90;;;;;;4925771;29;20047;-83
2022/10/31 12:07:31;;;;;;;12.25;5.68;;;17.30;99.90;;;;;;4803568;29;20049;-83
2022/10/31 12:10:57;;;;;;;10.25;5.38;;;17.30;99.90;;;;;;4767180;29;20057;-84
2022/10/31 12:13:51;;;;;;;10.65;5.05;;;17.30;99.90;;;;;;4806838;29;20055;-83
2022/10/31 12:17:24;;;;;;;;;;;;;;;;;;;;;
2022/10/31 12:35:05;;;;;;;15.40;5.50;;;17.10;99.90;;;;;;4908163;29;20645;-81
2022/10/31 12:37:41;;;;;;;11.20;5.45;;;17.10;99.90;;;;;;4934686;29;20079;-81
2022/10/31 12:40:11;;;;;;;12.48;6.10;;;17.10;99.90;;;;;;4920330;29;20060;-82
2022/10/31 12:42:41;;;;;;;13.52;6.68;;;17.10;99.90;;;;;;4920555;29;20104;-83
2022/10/31 12:45:25;;;;;;;14.75;5.50;;;17.10;99.90;;;;;;4915472;29;20112;-82
2022/10/31 12:48:22;;;;;;;12.45;5.13;;;17.20;99.90;;;;;;4928693;29;20147;-82
2022/10/31 12:50:55;;;;;;;13.73;5.30;;;17.20;99.90;;;;;;4931401;29;20108;-82
2022/10/31 12:53:35;;;;;;;14.98;6.03;;;17.30;99.90;;;;;;4926439;29;20048;-83
2022/10/31 12:56:16;;;;;;;8.63;4.95;;;17.30;99.90;;;;;;4938447;29;20062;-83
2022/10/31 12:58:59;;;;;;;11.27;5.25;;;17.40;99.90;;;;;;4939114;29;20056;-83
2022/10/31 13:01:39;;;;;;;12.45;4.82;;;17.40;99.90;;;;;;4934222;29;20060;-82
2022/10/31 13:04:20;;;;;;;11.05;5.78;;;17.50;99.90;;;;;;4923212;29;20044;-83
2022/10/31 13:06:50;;;;;;;16.08;5.00;;;17.60;99.90;;;;;;4933210;29;20051;-84
2022/10/31 13:09:22;;;;;;;12.18;4.95;;;17.70;99.90;;;;;;4931837;29;20052;-83
2022/10/31 13:11:55;;;;;;;18.33;4.13;;;17.80;99.90;;;;;;4933455;29;20135;-85
2022/10/31 13:14:25;;;;;;;11.20;4.53;;;17.90;99.90;;;;;;4928248;29;20432;-84
2022/10/31 13:16:54;;;;;;;12.70;4.22;;;17.90;99.90;;;;;;4928504;29;20063;-84
2022/10/31 13:19:35;;;;;;;10.30;4.80;;;18.00;99.90;;;;;;4937833;29;20427;-84
2022/10/31 13:22:20;;;;;;;9.85;4.00;;;18.10;99.90;;;;;;4932706;29;20062;-84
2022/10/31 13:25:02;;;;;;;9.55;4.00;;;18.10;99.90;;;;;;4926743;29;20083;-83
2022/10/31 13:27:42;;;;;;;12.38;4.43;;;18.10;99.90;;;;;;4923812;29;20045;-83
2022/10/31 13:30:16;;;;;;;9.25;4.57;;;18.10;99.90;;;;;;4938799;29;20051;-83
2022/10/31 13:33:01;;;;;;;12.55;4.43;;;18.10;99.90;;;;;;4935649;29;20120;-83
2022/10/31 13:35:44;;;;;;;8.85;4.20;;;18.00;99.90;;;;;;4910470;29;20048;-84
2022/10/31 13:38:13;;;;;;;11.95;4.80;;;18.00;99.90;;;;;;4908755;29;20048;-85
2022/10/31 13:40:46;;;;;;;14.43;4.53;;;17.90;99.90;;;;;;4934687;29;20124;-84
2022/10/31 13:43:23;;;;;;;8.43;4.40;;;18.00;99.90;;;;;;4930381;29;20518;-84
2022/10/31 13:45:52;;;;;;;10.80;4.95;;;18.00;99.90;;;;;;4929451;29;20044;-84
2022/10/31 13:48:28;;;;;;;11.77;4.63;;;18.00;99.90;;;;;;4924988;29;20051;-84
2022/10/31 13:51:08;;;;;;;11.52;4.72;;;18.00;99.90;;;;;;4927068;29;20048;-84
2022/10/31 13:53:37;;;;;;;12.33;4.80;;;18.00;99.90;;;;;;4927404;29;20047;-83
2022/10/31 13:56:17;;;;;;;12.77;4.80;;;18.10;99.90;;;;;;4933582;29;20044;-85
2022/10/31 13:59:14;;;;;;;;;;;18.20;99.90;;;;;;4915832;29;20104;-83
2022/10/31 14:01:57;;;;;;;7.93;4.05;;;18.20;99.90;;;;;;4926019;29;19926;-83
2022/10/31 14:04:27;;;;;;;12.73;4.70;;;18.20;99.90;;;;;;4924703;29;20064;-83
2022/10/31 14:06:59;;;;;;;8.98;4.70;;;18.20;99.90;;;;;;4933846;29;20413;-84
2022/10/31 14:09:33;;;;;;;9.98;4.70;;;18.20;99.90;;;;;;4927104;29;20081;-84
2022/10/31 14:12:05;;;;;;;11.95;4.82;;;18.30;99.90;;;;;;4930312;29;20049;-85
2022/10/31 14:14:46;;;;;;;9.45;4.38;;;18.40;99.90;;;;;;4934736;29;20059;-82
2022/10/31 14:17:20;;;;;;;13.55;5.10;;;18.40;99.90;;;;;;4919124;29;20139;-83
2022/10/31 14:20:20;;;;;;;10.15;4.15;;;18.40;99.90;;;;;;4926136;29;20083;-84
2022/10/31 14:22:46;;;;;;;13.18;4.82;;;18.30;99.90;;;;;;4921910;29;20496;-85
2022/10/31 14:25:33;;;;;;;11.23;4.25;;;18.20;99.90;;;;;;4935992;29;20059;-86
2022/10/31 14:28:03;;;;;;;9.73;4.28;;;18.20;99.90;;;;;;4931741;29;20082;-84
2022/10/31 14:30:30;;;;;;;;;;;18.20;99.90;;;;;;4938686;29;20053;-84
2022/10/31 14:33:19;;;;;;;13.38;4.55;;;18.20;99.90;;;;;;4939700;29;19923;-84
2022/10/31 14:36:09;;;;;;;10.73;4.95;;;18.10;99.90;;;;;;4930163;29;20090;-85
2022/10/31 14:38:44;;;;;;;14.85;5.63;;;18.10;99.90;;;;;;4929154;29;20052;-84
2022/10/31 14:41:29;;;;;;;10.35;4.55;;;18.00;99.90;;;;;;4925998;29;20135;-85
2022/10/31 14:44:29;;;;;;;19.58;5.40;;;18.00;99.90;;;;;;4940623;29;20455;-85
2022/10/31 14:47:01;;;;;;;11.25;5.15;;;18.00;99.90;;;;;;4934558;29;20107;-85
2022/10/31 14:49:39;;;;;;;14.02;3.97;;;17.90;99.90;;;;;;4927631;29;20044;-84
2022/10/31 14:52:08;;;;;;;11.95;5.18;;;17.90;99.90;;;;;;4908146;29;20054;-82
2022/10/31 14:54:39;;;;;;;17.92;5.57;;;17.80;99.90;;;;;;4938836;29;20091;-80
2022/10/31 14:57:27;;;;;;;14.38;4.82;;;17.80;99.90;;;;;;4934198;29;20047;-83
2022/10/31 15:00:20;;;;;;;10.13;4.30;;;17.70;99.90;;;;;;4928211;29;20052;-82
2022/10/31 15:02:49;;;;;;;13.75;5.88;;;17.70;99.90;;;;;;4918349;29;20051;-82
2022/10/31 15:05:17;;;;;;;8.82;4.60;;;17.60;99.90;;;;;;4938445;29;20064;-84
2022/10/31 15:07:57;;;;;;;9.35;4.70;;;17.50;99.90;;;;;;4934159;29;20143;-83
2022/10/31 15:10:31;;;;;;;11.15;5.15;;;17.50;99.90;;;;;;4928804;29;20670;-82
2022/10/31 15:13:18;;;;;;;11.88;5.80;;;17.40;99.90;;;;;;4923008;29;20100;-85
2022/10/31 15:15:52;;;;;;;17.25;4.97;;;17.30;99.90;;;;;;5063179;23;20026;-84
2022/10/31 15:18:34;;;;;;;12.73;5.13;;;17.20;99.90;;;;;;4913144;29;20076;-85
2022/10/31 15:21:02;;;;;;;9.77;4.88;;;17.20;99.90;;;;;;4910419;29;20082;-84
2022/10/31 15:23:32;;;;;;;11.60;4.50;;;17.10;99.90;;;;;;4903085;29;20053;-84
2022/10/31 15:26:01;;;;;;;9.38;4.38;;;17.10;99.90;;;;;;4914651;29;20067;-84
2022/10/31 15:28:28;;;;;;;9.93;4.78;;;17.00;99.90;;;;;;4918024;29;20510;-85
2022/10/31 15:31:00;;;;;;;8.20;4.28;;;17.00;99.90;;;;;;4912600;29;20430;-83
2022/10/31 15:33:41;;;;;;;9.40;4.45;;;17.00;99.90;;;;;;4915420;29;20049;-83
2022/10/31 15:36:23;;;;;;;19.98;5.25;;;16.90;99.90;;;;;;4922508;29;20059;-84
2022/10/31 15:38:57;;;;;;;13.80;4.53;;;17.00;99.90;;;;;;4918827;29;20072;-84
2022/10/31 15:41:38;;;;;;;16.48;5.18;;;16.90;99.90;;;;;;4914715;29;20067;-84
2022/10/31 15:44:15;;;;;;;10.85;4.63;;;16.90;99.90;;;;;;4909698;29;20489;-85
2022/10/31 15:46:42;;;;;;;11.27;4.88;;;16.80;99.90;;;;;;4921981;29;20153;-85
2022/10/31 15:49:44;;;;;;;15.30;4.85;;;16.80;99.90;;;;;;4909005;29;20474;-85
2022/10/31 15:52:17;;;;;;;13.00;6.70;;;16.70;99.90;;;;;;4897078;29;20488;-85
2022/10/31 15:54:55;;;;;;;12.38;4.50;;;16.60;99.90;;;;;;4908235;29;20065;-84
2022/10/31 15:57:23;;;;;;;10.32;5.35;;;16.50;99.90;;;;;;4920915;29;20059;-85
2022/10/31 15:59:51;;;;;;;15.52;6.20;;;16.50;99.90;;;;;;4918149;29;20063;-84
2022/10/31 16:02:21;;;;;;;12.85;6.32;;;16.40;99.90;;;;;;4917879;29;20052;-85
2022/10/31 16:04:49;;;;;;;;;;;16.40;99.90;;;;;;4914235;29;20087;-84
2022/10/31 16:07:18;;;;;;;16.98;8.23;;;16.40;99.90;;;;;;4905910;29;20380;-85
2022/10/31 16:10:25;;;;;;;9.77;5.20;;;16.20;99.90;;;;;;4932947;29;20055;-84
2022/10/31 16:12:52;;;;;;;16.70;5.70;;;16.10;99.90;;;;;;4919814;29;20076;-84
2022/10/31 16:15:21;;;;;;;11.25;4.60;;;16.10;99.90;;;;;;4907823;29;20048;-85
2022/10/31 16:17:50;;;;;;;11.63;6.00;;;16.10;99.90;;;;;;4911264;29;20087;-84
2022/10/31 16:20:22;;;;;;;22.33;8.53;;;16.00;99.90;;;;;;4924962;29;20124;-84
2022/10/31 16:22:51;;;;;;;21.10;11.35;;;16.00;99.90;;;;;;4905980;29;20347;-83
2022/10/31 16:25:38;;;;;;;27.27;18.05;;;16.00;99.90;;;;;;4912145;29;20052;-86
2022/10/31 16:28:18;;;;;;;25.67;15.65;;;15.90;99.90;;;;;;4906998;29;20414;-84
2022/10/31 16:30:47;;;;;;;12.75;6.82;;;15.80;99.90;;;;;;4924226;29;20083;-84
2022/10/31 16:33:30;;;;;;;10.07;6.57;;;15.80;99.90;;;;;;4919014;29;20070;-84
2022/10/31 16:35:59;;;;;;;19.20;7.32;;;15.70;99.90;;;;;;4905175;29;20143;-84
2022/10/31 16:38:46;;;;;;;14.25;8.02;;;15.70;99.90;;;;;;4915717;29;20066;-84
2022/10/31 16:41:12;;;;;;;16.48;7.53;;;15.60;99.90;;;;;;4916884;29;20066;-84
2022/10/31 16:43:39;;;;;;;46.33;24.92;;;15.60;99.90;;;;;;4913549;29;20076;-84
2022/10/31 16:46:14;;;;;;;28.13;15.57;;;15.60;99.90;;;;;;4919417;29;20134;-84
2022/10/31 16:48:40;;;;;;;16.05;9.25;;;15.60;99.90;;;;;;4920744;29;20082;-84
2022/10/31 16:51:08;;;;;;;18.15;11.02;;;15.50;99.90;;;;;;4909269;29;20086;-84
2022/10/31 16:53:36;;;;;;;16.45;7.90;;;15.40;99.90;;;;;;4922240;29;20083;-85
2022/10/31 16:56:16;;;;;;;19.02;11.20;;;15.50;99.90;;;;;;4915830;29;20063;-83
2022/10/31 16:58:43;;;;;;;19.65;10.18;;;15.30;99.90;;;;;;4914994;29;20569;-84
2022/10/31 17:01:12;;;;;;;28.00;10.65;;;15.30;99.90;;;;;;4916104;29;20068;-84
2022/10/31 17:03:39;;;;;;;22.75;9.40;;;15.30;99.90;;;;;;4919933;29;20131;-84
2022/10/31 17:06:11;;;;;;;11.35;6.72;;;15.30;99.90;;;;;;4920731;29;20486;-83
2022/10/31 17:08:38;;;;;;;9.80;6.13;;;15.30;99.90;;;;;;4924784;29;20136;-84
2022/10/31 17:11:07;;;;;;;14.00;6.60;;;15.20;99.90;;;;;;4903607;29;20049;-85
2022/10/31 17:13:34;;;;;;;11.32;6.18;;;15.30;99.90;;;;;;4922055;29;20078;-85
2022/10/31 17:16:02;;;;;;;17.33;6.68;;;15.20;99.90;;;;;;4919774;29;20052;-86
2022/10/31 17:18:29;;;;;;;17.58;8.73;;;15.10;99.90;;;;;;4912205;29;20602;-84
2022/10/31 17:21:01;;;;;;;17.25;7.40;;;15.20;99.90;;;;;;4899111;29;20049;-85
2022/10/31 17:23:28;;;;;;;12.15;7.00;;;15.10;99.90;;;;;;4916236;29;20060;-85
2022/10/31 17:25:55;;;;;;;15.15;6.70;;;15.00;99.90;;;;;;4920454;29;20057;-85
2022/10/31 17:28:23;;;;;;;18.80;8.02;;;15.00;99.90;;;;;;4917431;29;20087;-86
2022/10/31 17:30:50;;;;;;;11.10;6.53;;;15.00;99.90;;;;;;4923054;29;20112;-85
2022/10/31 17:33:17;;;;;;;12.98;7.00;;;15.00;99.90;;;;;;4918283;29;20054;-85
2022/10/31 17:35:44;;;;;;;14.20;8.93;;;14.90;99.90;;;;;;4909093;29;20076;-82
2022/10/31 17:38:12;;;;;;;17.08;9.98;;;14.90;99.90;;;;;;4904230;29;20052;-82
2022/10/31 17:40:42;;;;;;;13.90;7.95;;;14.90;99.90;;;;;;4911848;29;20048;-82
2022/10/31 17:43:10;;;;;;;16.48;7.88;;;14.80;99.90;;;;;;4902751;29;20071;-82
2022/10/31 17:45:39;;;;;;;13.77;7.85;;;14.80;99.90;;;;;;4918294;29;20044;-82
2022/10/31 17:48:09;;;;;;;13.13;6.57;;;14.80;99.90;;;;;;4916479;29;20052;-82
2022/10/31 17:50:36;;;;;;;14.43;6.60;;;14.80;99.90;;;;;;4913911;29;20094;-81
2022/10/31 17:53:03;;;;;;;12.13;6.40;;;14.70;99.90;;;;;;4906346;29;20609;-82
2022/10/31 17:55:31;;;;;;;11.45;6.50;;;14.60;99.90;;;;;;4906713;29;20068;-83
2022/10/31 17:58:04;;;;;;;18.98;6.25;;;14.70;99.90;;;;;;4912340;29;20060;-82
2022/10/31 18:00:32;;;;;;;14.25;7.72;;;14.60;99.90;;;;;;4905950;29;20124;-82
2022/10/31 18:03:02;;;;;;;10.60;5.82;;;14.60;99.90;;;;;;4906233;29;20052;-82
2022/10/31 18:05:30;;;;;;;12.77;6.43;;;14.60;99.90;;;;;;4904044;29;20078;-82
2022/10/31 18:07:56;;;;;;;9.70;6.05;;;14.50;99.90;;;;;;4913693;29;20048;-82
2022/10/31 18:10:29;;;;;;;13.73;6.25;;;14.50;99.90;;;;;;4919151;29;20166;-82
2022/10/31 18:12:56;;;;;;;17.98;6.72;;;14.50;99.90;;;;;;4906656;29;20048;-82
2022/10/31 18:15:23;;;;;;;11.63;6.03;;;14.50;99.90;;;;;;4912594;29;20064;-83
2022/10/31 18:17:50;;;;;;;13.63;6.47;;;14.40;99.90;;;;;;4913062;29;20041;-82
2022/10/31 18:20:17;;;;;;;11.02;6.10;;;14.40;99.90;;;;;;4912043;29;20553;-82
2022/10/31 18:22:44;;;;;;;10.50;5.57;;;14.30;99.90;;;;;;4902880;29;20113;-82
2022/10/31 18:25:11;;;;;;;9.55;5.35;;;14.30;99.90;;;;;;4902782;29;20121;-82
2022/10/31 18:27:38;;;;;;;9.38;4.55;;;14.30;99.90;;;;;;4905617;29;20123;-83
2022/10/31 18:30:05;;;;;;;10.32;4.43;;;14.20;99.90;;;;;;4904990;29;20090;-83
2022/10/31 18:32:33;;;;;;;11.20;4.20;;;14.20;99.90;;;;;;4908770;29;20049;-82
2022/10/31 18:35:00;;;;;;;10.68;3.38;;;14.20;99.90;;;;;;4910894;29;20049;-83
2022/10/31 18:37:27;;;;;;;56.63;29.23;;;14.20;99.90;;;;;;4896042;29;20112;-83
2022/10/31 18:39:54;;;;;;;38.83;17.92;;;14.20;99.90;;;;;;4908732;29;20078;-83
2022/10/31 18:42:21;;;;;;;32.85;15.45;;;14.30;99.90;;;;;;4904252;29;20048;-83
2022/10/31 18:44:48;;;;;;;17.35;9.27;;;14.20;99.90;;;;;;4903183;29;20824;-83
2022/10/31 18:47:17;;;;;;;20.92;11.20;;;14.30;99.90;;;;;;4903631;29;20053;-83
2022/10/31 18:49:44;;;;;;;17.95;8.73;;;14.30;99.90;;;;;;4911323;29;20426;-83
2022/10/31 18:52:12;;;;;;;15.68;7.03;;;14.20;99.90;;;;;;4908654;29;20060;-85
2022/10/31 18:54:39;;;;;;;17.33;7.97;;;14.30;99.90;;;;;;4904609;29;20138;-83
2022/10/31 18:57:07;;;;;;;17.15;9.25;;;14.30;99.90;;;;;;4896153;29;20522;-84
2022/10/31 18:59:34;;;;;;;20.23;9.95;;;14.30;99.90;;;;;;4906463;29;20088;-83
2022/10/31 19:02:01;;;;;;;18.20;9.68;;;14.30;99.90;;;;;;4907276;29;20048;-83
2022/10/31 19:04:29;;;;;;;23.20;9.82;;;14.30;99.90;;;;;;4904418;29;20100;-83
2022/10/31 19:06:56;;;;;;;16.02;7.30;;;14.30;99.90;;;;;;4903301;29;20044;-84
2022/10/31 19:09:23;;;;;;;15.82;7.18;;;14.30;99.90;;;;;;4916230;29;20048;-83
2022/10/31 19:11:50;;;;;;;14.02;7.18;;;14.30;99.90;;;;;;4911690;29;20055;-84
2022/10/31 19:14:17;;;;;;;13.13;6.70;;;14.30;99.90;;;;;;4911333;29;20065;-83
2022/10/31 19:16:44;;;;;;;12.90;5.40;;;14.30;99.90;;;;;;4907301;29;20071;-83
2022/10/31 19:19:11;;;;;;;10.63;6.32;;;14.30;99.90;;;;;;4918476;29;20051;-83
2022/10/31 19:21:37;;;;;;;14.27;6.22;;;14.30;99.90;;;;;;4901750;29;20060;-82
2022/10/31 19:24:04;;;;;;;12.35;5.93;;;14.20;99.90;;;;;;4929923;29;20065;-83
2022/10/31 19:26:32;;;;;;;13.35;7.03;;;14.20;99.90;;;;;;4908359;29;20057;-83
2022/10/31 19:28:59;;;;;;;15.82;7.90;;;14.20;99.90;;;;;;4910183;29;20108;-83
2022/10/31 19:31:27;;;;;;;16.23;7.30;;;14.20;99.90;;;;;;4913239;29;20044;-83
2022/10/31 19:33:54;;;;;;;12.93;6.38;;;14.20;99.90;;;;;;4915873;29;20811;-84
2022/10/31 19:36:21;;;;;;;12.23;6.07;;;14.20;99.90;;;;;;4910029;29;20656;-82
2022/10/31 19:38:49;;;;;;;8.75;5.20;;;14.20;99.90;;;;;;4908961;29;20052;-84
2022/10/31 19:41:22;;;;;;;13.20;5.10;;;14.10;99.90;;;;;;4912429;29;20053;-83
2022/10/31 19:43:49;;;;;;;9.45;5.43;;;14.10;99.90;;;;;;4917249;29;20108;-83
2022/10/31 19:46:17;;;;;;;13.15;5.82;;;14.20;99.90;;;;;;4925587;29;20052;-83
2022/10/31 19:48:59;;;;;;;15.00;5.78;;;14.10;99.90;;;;;;4925139;29;20036;-84
2022/10/31 19:51:27;;;;;;;15.10;5.82;;;14.10;99.90;;;;;;4931290;29;20047;-83
2022/10/31 19:53:54;;;;;;;9.65;5.40;;;14.10;99.90;;;;;;4931981;29;20052;-85
2022/10/31 19:56:23;;;;;;;10.00;4.13;;;14.00;99.90;;;;;;4922699;29;20035;-83
2022/10/31 19:58:50;;;;;;;11.37;4.33;;;14.00;99.90;;;;;;4921179;29;20056;-83
2022/10/31 20:01:19;;;;;;;9.65;5.00;;;13.90;99.90;;;;;;4908877;29;20376;-84
2022/10/31 20:03:47;;;;;;;13.45;6.03;;;13.90;99.90;;;;;;4916030;29;20059;-83
2022/10/31 20:06:29;;;;;;;11.70;4.65;;;13.90;99.90;;;;;;4910343;29;20112;-82
2022/10/31 20:08:56;;;;;;;18.38;6.00;;;13.90;99.90;;;;;;4907408;29;20052;-83
2022/10/31 20:11:25;;;;;;;8.85;5.57;;;13.90;99.90;;;;;;4920175;29;20052;-83
2022/10/31 20:13:59;;;;;;;11.00;5.07;;;13.80;99.90;;;;;;4921262;29;20054;-84
2022/10/31 20:16:27;;;;;;;10.70;5.35;;;13.80;99.90;;;;;;4922375;29;20074;-82
2022/10/31 20:18:54;;;;;;;9.27;5.05;;;13.90;99.90;;;;;;4939305;29;20107;-85
2022/10/31 20:21:23;;;;;;;12.18;6.30;;;13.80;99.90;;;;;;4909109;29;20056;-84
2022/10/31 20:24:01;;;;;;;11.98;5.07;;;13.80;99.90;;;;;;4903158;29;20059;-83
2022/10/31 20:26:29;;;;;;;15.93;5.55;;;13.80;99.90;;;;;;4906254;29;20061;-83
2022/10/31 20:28:57;;;;;;;11.75;5.05;;;13.80;99.90;;;;;;4907302;29;20074;-83
2022/10/31 20:31:27;;;;;;;10.82;4.93;;;13.80;99.90;;;;;;4917900;29;20056;-83
2022/10/31 20:33:54;;;;;;;9.13;4.30;;;13.90;99.90;;;;;;4895723;29;20047;-84
2022/10/31 20:36:22;;;;;;;10.27;4.32;;;13.80;99.90;;;;;;4901088;29;20525;-84
2022/10/31 20:38:51;;;;;;;9.38;4.40;;;13.70;99.90;;;;;;4909525;29;20463;-82
2022/10/31 20:41:18;;;;;;;11.60;4.85;;;13.70;99.90;;;;;;4921350;29;20049;-83
2022/10/31 20:43:45;;;;;;;11.57;4.38;;;13.70;99.90;;;;;;4902818;29;20557;-84
2022/10/31 20:46:18;;;;;;;8.20;3.90;;;13.70;99.90;;;;;;4912420;29;20443;-83
2022/10/31 20:48:46;;;;;;;9.20;4.65;;;13.70;99.90;;;;;;4913123;29;20084;-82
2022/10/31 20:51:16;;;;;;;13.07;4.53;;;13.70;99.90;;;;;;4912626;29;20072;-83
2022/10/31 20:53:44;;;;;;;9.43;4.13;;;13.70;99.90;;;;;;4908543;29;20052;-84